Time;durP1;ratioP1;P1;durP2;ratioP2;P2;SDS_P1;SDS_P2;PMS_P1;PMS_P2;Temp;Humidity;BMP_temperature;BMP_pressure;BME280_temperature;BME280_humidity;BME280_pressure;Samples;Min_cycle;Max_cycle;Signal;HPM_P1;HPM_P2
2022/03/13 00:02:03;;;;;;;41.13;18.50;;;;;;;-3.82;49.32;101611.22;4424669;32;20432;-74
2022/03/13 00:04:31;;;;;;;36.40;17.23;;;;;;;-3.93;49.97;101607.03;4439239;32;20170;-74
2022/03/13 00:06:58;;;;;;;40.05;18.08;;;;;;;-4.09;50.34;101610.31;4425164;32;20421;-74
2022/03/13 00:09:26;;;;;;;40.55;18.48;;;;;;;-4.16;50.64;101608.09;4424730;32;20687;-74
2022/03/13 00:11:53;;;;;;;42.03;18.10;;;;;;;-4.32;51.95;101609.63;4439277;32;20157;-74
2022/03/13 00:14:24;;;;;;;43.10;18.25;;;;;;;-4.23;50.72;101606.81;4439032;32;20420;-74
2022/03/13 00:16:52;;;;;;;37.75;17.30;;;;;;;-4.31;52.05;101602.84;4439356;32;20092;-74
2022/03/13 00:19:20;;;;;;;42.95;17.95;;;;;;;-4.36;51.62;101602.50;4439052;32;20200;-74
2022/03/13 00:21:53;;;;;;;39.95;18.27;;;;;;;-4.32;51.21;101603.59;4439183;32;20076;-74
2022/03/13 00:24:22;;;;;;;43.10;18.77;;;;;;;-4.46;51.60;101597.53;4439247;32;20532;-74
2022/03/13 00:26:50;;;;;;;42.20;19.30;;;;;;;-4.40;51.20;101591.91;4439191;32;20108;-74
2022/03/13 00:29:19;;;;;;;35.58;17.05;;;;;;;-4.41;51.34;101598.75;4424500;32;20138;-74
2022/03/13 00:31:46;;;;;;;46.05;20.37;;;;;;;-4.32;51.58;101589.06;4439089;32;20166;-74
2022/03/13 00:34:14;;;;;;;42.83;18.20;;;;;;;-4.27;51.14;101586.81;4439000;32;20094;-74
2022/03/13 00:36:42;;;;;;;44.13;17.85;;;;;;;-4.42;51.78;101584.06;4439168;32;20170;-74
2022/03/13 00:39:09;;;;;;;50.90;19.65;;;;;;;-4.42;51.62;101583.19;4424714;32;20172;-74
2022/03/13 00:41:36;;;;;;;43.95;18.80;;;;;;;-4.48;51.29;101580.22;4438997;32;20089;-74
2022/03/13 00:44:05;;;;;;;42.78;18.85;;;;;;;-4.57;52.44;101581.38;4424473;32;20112;-74
2022/03/13 00:46:33;;;;;;;40.05;18.17;;;;;;;-4.62;52.16;101584.44;4424816;32;20117;-74
2022/03/13 00:49:00;;;;;;;41.20;18.23;;;;;;;-4.62;51.56;101589.56;4437956;32;20076;-74
2022/03/13 00:51:28;;;;;;;41.63;19.23;;;;;;;-4.44;50.46;101584.78;4439197;32;20162;-74
2022/03/13 00:53:55;;;;;;;45.65;20.02;;;;;;;-4.31;51.32;101587.41;4438882;32;20161;-74
2022/03/13 00:56:22;;;;;;;39.65;18.83;;;;;;;-4.60;52.31;101580.25;4424679;32;20113;-74
2022/03/13 00:58:49;;;;;;;36.63;18.33;;;;;;;-4.73;52.18;101590.53;4438897;32;20093;-74
2022/03/13 01:01:17;;;;;;;43.13;20.00;;;;;;;-4.84;53.42;101585.53;4438902;32;20096;-74
2022/03/13 01:03:44;;;;;;;44.70;19.05;;;;;;;-4.93;53.87;101584.00;4438738;32;20113;-74
2022/03/13 01:06:12;;;;;;;42.00;19.27;;;;;;;-5.05;55.16;101584.03;4424464;32;20438;-74
2022/03/13 01:08:44;;;;;;;43.38;19.17;;;;;;;-5.12;55.36;101584.41;4438832;32;20403;-74
2022/03/13 01:11:11;;;;;;;41.70;20.30;;;;;;;-5.01;54.77;101575.75;4438852;32;20100;-74
2022/03/13 01:13:39;;;;;;;51.97;20.98;;;;;;;-5.00;54.68;101574.97;4438673;32;20124;-74
2022/03/13 01:16:18;;;;;;;51.78;22.67;;;;;;;-4.79;53.05;101569.53;4438928;32;20139;-74
2022/03/13 01:18:49;;;;;;;45.63;22.40;;;;;;;-4.83;54.09;101573.56;4438795;32;20089;-73
2022/03/13 01:21:17;;;;;;;45.83;22.02;;;;;;;-4.85;54.41;101569.97;4438633;32;20171;-74
2022/03/13 01:23:59;;;;;;;54.60;22.02;;;;;;;-4.78;53.35;101568.72;4438662;32;20556;-74
2022/03/13 01:26:27;;;;;;;47.50;21.95;;;;;;;-4.79;53.50;101567.84;4438643;32;20176;-74
2022/03/13 01:28:58;;;;;;;47.17;20.20;;;;;;;-4.90;55.20;101572.25;4424473;32;20107;-74
2022/03/13 01:31:27;;;;;;;47.22;20.67;;;;;;;-5.05;54.97;101569.50;4438704;32;20172;-74
2022/03/13 01:33:57;;;;;;;46.95;21.65;;;;;;;-5.17;56.00;101578.03;4438588;32;20105;-74
2022/03/13 01:36:24;;;;;;;44.10;21.17;;;;;;;-5.34;57.49;101574.25;4438677;32;20124;-74
2022/03/13 01:38:53;;;;;;;45.28;21.98;;;;;;;-5.50;57.54;101571.41;4438747;32;20073;-74
2022/03/13 01:41:21;;;;;;;48.67;21.75;;;;;;;-5.20;55.09;101576.13;4438512;32;20167;-73
2022/03/13 01:43:48;;;;;;;51.53;23.33;;;;;;;-5.31;56.31;101571.91;4438512;32;20098;-74
2022/03/13 01:46:16;;;;;;;46.50;21.25;;;;;;;-5.53;56.88;101572.97;4424189;32;20526;-74
2022/03/13 01:48:57;;;;;;;43.95;20.98;;;;;;;-5.68;58.15;101571.88;4438654;32;20152;-74
2022/03/13 01:51:26;;;;;;;52.17;22.17;;;;;;;-5.69;58.03;101571.75;4438514;32;20077;-74
2022/03/13 01:53:56;;;;;;;57.08;21.87;;;;;;;-5.65;58.13;101556.69;4438313;32;20116;-74
2022/03/13 01:56:24;;;;;;;53.97;23.42;;;;;;;-5.57;58.48;101570.97;4424083;32;20113;-74
2022/03/13 01:58:54;;;;;;;57.30;25.83;;;;;;;-5.65;58.46;101569.53;4438494;32;20085;-74
2022/03/13 02:01:25;;;;;;;67.72;28.12;;;;;;;-5.40;57.58;101568.72;4438156;32;20161;-74
2022/03/13 02:03:53;;;;;;;61.85;26.77;;;;;;;-5.55;61.57;101563.34;4423982;32;20101;-74
2022/03/13 02:06:23;;;;;;;64.60;26.48;;;;;;;-5.65;61.40;101560.94;4438237;32;20206;-74
2022/03/13 02:08:51;;;;;;;45.47;21.08;;;;;;;-5.70;60.82;101563.16;4438458;32;20078;-74
2022/03/13 02:11:21;;;;;;;44.25;18.73;;;;;;;-5.74;60.04;101558.59;4438184;32;20771;-74
2022/03/13 02:13:52;;;;;;;38.75;16.67;;;;;;;-5.70;58.87;101550.31;4438186;32;20093;-74
2022/03/13 02:16:21;;;;;;;35.28;15.88;;;;;;;-5.40;56.24;101551.63;4438121;32;20177;-74
2022/03/13 02:18:52;;;;;;;30.73;14.73;;;;;;;-5.20;54.95;101539.28;4423833;32;20097;-74
2022/03/13 02:21:24;;;;;;;36.40;17.40;;;;;;;-5.12;54.33;101543.28;4438055;32;20108;-74
2022/03/13 02:24:02;;;;;;;32.88;16.62;;;;;;;-5.12;54.57;101540.72;4438075;32;20093;-74
2022/03/13 02:26:32;;;;;;;33.85;15.07;;;;;;;-5.00;53.75;101536.41;4423730;32;20562;-74
2022/03/13 02:29:01;;;;;;;32.90;15.32;;;;;;;-4.99;53.34;101537.28;4437999;32;20429;-74
2022/03/13 02:31:32;;;;;;;34.95;15.77;;;;;;;-5.30;55.30;101530.03;4423669;32;20470;-74
2022/03/13 02:34:00;;;;;;;34.85;15.52;;;;;;;-5.53;56.31;101536.13;4437760;32;20164;-74
2022/03/13 02:36:27;;;;;;;33.55;15.63;;;;;;;-5.69;55.69;101539.25;4438045;32;20176;-74
2022/03/13 02:38:54;;;;;;;30.95;14.48;;;;;;;-5.67;56.24;101540.28;4437895;32;20076;-74
2022/03/13 02:41:21;;;;;;;31.98;14.05;;;;;;;-5.60;55.62;101544.19;4437839;32;20093;-74
2022/03/13 02:43:48;;;;;;;32.97;14.95;;;;;;;-5.60;55.86;101539.94;4437685;32;20090;-74
2022/03/13 02:46:24;;;;;;;28.75;14.38;;;;;;;-5.70;55.81;101541.72;4437820;32;20483;-74
2022/03/13 02:48:51;;;;;;;46.15;15.98;;;;;;;-5.40;54.09;101541.34;4423358;32;20115;-74
2022/03/13 02:51:18;;;;;;;33.83;14.95;;;;;;;-5.55;55.22;101537.69;4437637;32;20100;-74
2022/03/13 02:53:45;;;;;;;34.35;14.52;;;;;;;-5.70;55.88;101537.47;4437729;32;20412;-74
2022/03/13 02:56:13;;;;;;;35.72;14.52;;;;;;;-5.88;56.19;101531.91;4437529;32;20165;-74
2022/03/13 02:58:40;;;;;;;27.27;13.65;;;;;;;-5.95;56.33;101528.84;4423301;32;20085;-74
2022/03/13 03:01:08;;;;;;;29.80;14.32;;;;;;;-5.79;55.32;101532.59;4437496;32;20097;-74
2022/03/13 03:03:35;;;;;;;36.08;14.40;;;;;;;-5.71;55.29;101535.72;4437483;32;20097;-74
2022/03/13 03:06:03;;;;;;;36.88;14.48;;;;;;;-5.86;56.50;101532.94;4437450;32;20139;-74
2022/03/13 03:08:31;;;;;;;32.05;15.13;;;;;;;-5.80;55.97;101535.91;4437517;32;20422;-74
2022/03/13 03:11:00;;;;;;;30.35;14.27;;;;;;;-5.88;56.86;101537.06;4437458;32;20435;-74
2022/03/13 03:13:27;;;;;;;34.17;14.85;;;;;;;-5.94;56.60;101533.19;4424605;32;20957;-74
2022/03/13 03:15:54;;;;;;;34.25;14.77;;;;;;;-6.04;57.40;101534.22;4425263;32;20176;-74
2022/03/13 03:18:21;;;;;;;34.58;15.25;;;;;;;-5.88;57.13;101531.91;4439650;32;20081;-74
2022/03/13 03:20:49;;;;;;;31.60;14.52;;;;;;;-5.97;58.36;101538.09;4439597;32;20089;-74
2022/03/13 03:23:16;;;;;;;30.50;15.00;;;;;;;-5.89;56.71;101530.16;4425164;32;20167;-74
2022/03/13 03:25:44;;;;;;;28.98;13.98;;;;;;;-5.99;56.73;101530.28;4424981;32;20101;-74
2022/03/13 03:28:16;;;;;;;30.42;13.73;;;;;;;-5.86;56.30;101525.25;4439526;32;20510;-74
2022/03/13 03:30:43;;;;;;;32.00;15.40;;;;;;;-5.58;55.77;101519.50;4439734;32;20127;-74
2022/03/13 03:33:11;;;;;;;31.05;15.05;;;;;;;-5.61;56.44;101527.00;4439453;32;20159;-74
2022/03/13 03:35:38;;;;;;;37.90;15.63;;;;;;;-5.66;56.30;101524.06;4425080;32;20544;-74
2022/03/13 03:38:05;;;;;;;45.97;18.17;;;;;;;-5.46;55.66;101510.09;4439563;32;20149;-74
2022/03/13 03:40:34;;;;;;;34.88;16.23;;;;;;;-5.62;58.07;101510.69;4439798;32;20092;-74
2022/03/13 03:43:03;;;;;;;35.97;14.70;;;;;;;-5.97;59.77;101510.78;4425313;32;20167;-74
2022/03/13 03:45:31;;;;;;;40.25;17.27;;;;;;;-6.05;59.85;101509.31;4439470;32;20104;-74
2022/03/13 03:47:59;;;;;;;30.65;13.95;;;;;;;-6.14;60.25;101512.13;4425273;32;20146;-74
2022/03/13 03:50:27;;;;;;;31.40;14.77;;;;;;;-6.27;60.15;101510.31;4439397;32;20089;-74
2022/03/13 03:52:55;;;;;;;29.50;13.93;;;;;;;-6.43;60.73;101507.44;4425025;32;20116;-74
2022/03/13 03:55:25;;;;;;;29.23;13.80;;;;;;;-6.46;60.20;101512.31;4439403;32;20515;-74
2022/03/13 03:57:53;;;;;;;31.42;14.07;;;;;;;-6.54;60.01;101506.62;4439344;32;20154;-74
2022/03/13 04:00:24;;;;;;;28.70;13.95;;;;;;;-6.63;61.50;101510.16;4425078;32;20089;-74
2022/03/13 04:02:53;;;;;;;33.60;14.00;;;;;;;-6.71;61.93;101514.72;4439351;32;20082;-74
2022/03/13 04:05:20;;;;;;;37.63;13.93;;;;;;;-6.71;61.00;101522.41;4439294;32;20097;-74
2022/03/13 04:07:47;;;;;;;30.15;13.68;;;;;;;-6.62;61.12;101517.97;4439380;32;20082;-74
2022/03/13 04:10:15;;;;;;;30.73;14.27;;;;;;;-6.39;59.74;101519.69;4439289;32;20093;-74
2022/03/13 04:12:42;;;;;;;27.67;12.82;;;;;;;-5.97;57.26;101513.34;4439286;32;20097;-74
2022/03/13 04:15:09;;;;;;;31.15;14.05;;;;;;;-5.80;56.22;101505.13;4439169;32;20495;-74
2022/03/13 04:17:37;;;;;;;24.55;12.45;;;;;;;-5.83;56.27;101510.06;4439217;32;20097;-74
2022/03/13 04:20:06;;;;;;;30.02;13.23;;;;;;;-5.75;56.56;101509.72;4405570;32;128123;-74
2022/03/13 04:22:34;;;;;;;28.27;13.30;;;;;;;-5.77;56.72;101505.34;4423639;32;20089;-74
2022/03/13 04:25:01;;;;;;;27.02;13.90;;;;;;;-5.75;57.10;101499.44;4422117;32;20161;-74
2022/03/13 04:27:30;;;;;;;30.90;13.73;;;;;;;-6.12;58.83;101505.41;4409801;32;20149;-74
2022/03/13 04:29:57;;;;;;;30.67;14.70;;;;;;;-6.35;60.07;101503.75;4422061;32;20115;-74
2022/03/13 04:32:25;;;;;;;52.50;18.85;;;;;;;-6.45;60.37;101508.06;4423796;32;20101;-74
2022/03/13 04:34:52;;;;;;;40.47;17.25;;;;;;;-6.60;62.28;101495.03;4423870;32;20097;-74
2022/03/13 04:37:20;;;;;;;30.40;16.50;;;;;;;-6.72;63.06;101497.53;4422074;32;20429;-74
2022/03/13 04:39:50;;;;;;;29.65;13.60;;;;;;;-6.38;61.11;101500.94;4424003;32;20089;-74
2022/03/13 04:42:18;;;;;;;31.95;13.82;;;;;;;-6.05;58.73;101492.25;4423694;32;20162;-74
2022/03/13 04:44:45;;;;;;;31.40;13.75;;;;;;;-5.98;58.30;101493.56;4423737;32;20098;-74
2022/03/13 04:47:13;;;;;;;32.85;14.93;;;;;;;-6.00;58.02;101494.28;4423678;32;20428;-74
2022/03/13 04:49:43;;;;;;;32.05;15.45;;;;;;;-6.27;60.57;101488.91;4423686;32;20489;-74
2022/03/13 04:52:14;;;;;;;42.30;16.37;;;;;;;-6.49;61.82;101486.44;4423686;32;20159;-74
2022/03/13 04:54:41;;;;;;;35.47;16.92;;;;;;;-6.66;62.04;101492.00;4423619;32;20413;-74
2022/03/13 04:57:08;;;;;;;38.75;15.63;;;;;;;-6.79;63.04;101493.63;4423553;32;20081;-74
2022/03/13 04:59:35;;;;;;;29.45;15.43;;;;;;;-6.81;63.01;101497.75;4409257;32;20535;-74
2022/03/13 05:02:03;;;;;;;36.80;16.40;;;;;;;-6.72;63.42;101489.84;4423552;32;20105;-74
2022/03/13 05:04:31;;;;;;;28.75;13.93;;;;;;;-6.63;62.54;101492.22;4423703;32;20169;-74
2022/03/13 05:06:59;;;;;;;32.78;14.75;;;;;;;-6.45;61.08;101480.75;4423427;32;20115;-74
2022/03/13 05:09:27;;;;;;;22.02;12.05;;;;;;;-6.44;61.28;101479.09;4423433;32;20586;-74
2022/03/13 05:11:54;;;;;;;29.77;13.25;;;;;;;-6.55;60.88;101486.00;4423326;32;20093;-74
2022/03/13 05:14:22;;;;;;;38.10;13.62;;;;;;;-6.60;61.71;101495.03;4423571;32;20176;-74
2022/03/13 05:16:49;;;;;;;30.65;12.37;;;;;;;-6.65;62.18;101498.91;4423519;32;20120;-74
2022/03/13 05:19:16;;;;;;;28.83;12.82;;;;;;;-6.60;61.10;101500.16;4424068;32;20085;-74
2022/03/13 05:21:45;;;;;;;25.73;11.45;;;;;;;-6.30;58.97;101501.50;4438746;32;20093;-74
2022/03/13 05:24:12;;;;;;;27.23;12.88;;;;;;;-6.29;59.59;101501.63;4438812;32;20131;-74
2022/03/13 05:26:39;;;;;;;29.37;13.35;;;;;;;-6.28;58.63;101503.41;4438736;32;20152;-74
2022/03/13 05:29:07;;;;;;;26.75;12.55;;;;;;;-6.30;59.51;101502.41;4438791;32;20137;-74
2022/03/13 05:31:34;;;;;;;28.92;13.50;;;;;;;-6.41;60.97;101503.28;4438697;32;20097;-74
2022/03/13 05:34:03;;;;;;;31.60;13.62;;;;;;;-6.36;60.20;101503.59;4438689;32;20504;-74
2022/03/13 05:36:31;;;;;;;31.70;15.02;;;;;;;-6.36;61.70;101508.75;4438214;32;20488;-74
2022/03/13 05:38:58;;;;;;;34.22;13.90;;;;;;;-6.33;63.14;101501.28;4438639;32;20116;-74
2022/03/13 05:41:26;;;;;;;34.63;16.02;;;;;;;-6.14;62.06;101506.09;4424319;32;20452;-74
2022/03/13 05:43:54;;;;;;;46.90;18.30;;;;;;;-5.91;62.39;101511.16;4438546;32;20105;-74
2022/03/13 05:46:21;;;;;;;43.63;20.73;;;;;;;-5.75;63.24;101512.28;4438586;32;20085;-74
2022/03/13 05:48:48;;;;;;;52.85;22.33;;;;;;;-5.43;63.12;101509.44;4438487;32;20153;-74
2022/03/13 05:51:16;;;;;;;51.40;20.62;;;;;;;-5.11;63.68;101507.41;4438421;32;20206;-74
2022/03/13 05:53:44;;;;;;;50.05;19.70;;;;;;;-4.90;62.96;101507.97;4438496;32;20146;-74
2022/03/13 05:56:12;;;;;;;50.20;21.70;;;;;;;-4.83;61.97;101512.75;4438509;32;20150;-74
2022/03/13 05:58:39;;;;;;;67.70;23.45;;;;;;;-4.70;61.79;101508.41;4438380;32;20172;-74
2022/03/13 06:01:08;;;;;;;50.42;22.37;;;;;;;-4.56;61.29;101505.09;4438474;32;20491;-74
2022/03/13 06:03:37;;;;;;;57.28;24.27;;;;;;;-4.60;59.04;101500.53;4438560;32;20123;-74
2022/03/13 06:06:04;;;;;;;49.58;22.87;;;;;;;-4.58;58.70;101509.25;4438269;32;20115;-74
2022/03/13 06:08:32;;;;;;;43.35;21.20;;;;;;;-4.54;58.70;101513.81;4438293;32;20093;-74
2022/03/13 06:11:00;;;;;;;63.47;20.33;;;;;;;-4.52;58.27;101504.53;4438201;32;20127;-74
2022/03/13 06:13:28;;;;;;;42.88;19.92;;;;;;;-4.47;57.86;101510.84;4438179;32;20162;-74
2022/03/13 06:15:57;;;;;;;54.72;23.38;;;;;;;-4.39;58.39;101513.94;4438129;32;20176;-74
2022/03/13 06:18:30;;;;;;;62.40;26.87;;;;;;;-4.30;59.54;101519.69;4438184;32;20093;-74
2022/03/13 06:20:58;;;;;;;74.25;28.50;;;;;;;-4.11;61.36;101521.78;4437974;32;20135;-74
2022/03/13 06:23:25;;;;;;;53.53;24.50;;;;;;;-4.10;63.21;101531.28;4438069;32;20168;-74
2022/03/13 06:25:52;;;;;;;58.80;26.52;;;;;;;-4.02;63.44;101521.50;4437934;32;20082;-74
2022/03/13 06:28:21;;;;;;;68.25;27.48;;;;;;;-3.91;61.75;101520.50;4437837;32;20158;-74
2022/03/13 06:30:49;;;;;;;70.15;26.62;;;;;;;-3.89;61.74;101524.06;4423377;32;20468;-74
2022/03/13 06:33:16;;;;;;;85.85;28.73;;;;;;;-3.73;60.73;101525.94;4437833;32;20184;-74
2022/03/13 06:35:43;;;;;;;68.95;25.40;;;;;;;-3.46;58.33;101535.44;4410697;32;20509;-74
2022/03/13 06:38:11;;;;;;;57.38;24.20;;;;;;;-3.12;55.88;101530.66;4437776;32;20093;-74
2022/03/13 06:40:38;;;;;;;71.53;26.90;;;;;;;-2.92;54.25;101534.47;4437638;32;20093;-74
2022/03/13 06:43:06;;;;;;;67.20;24.40;;;;;;;-3.02;55.22;101532.13;4437631;32;20101;-74
2022/03/13 06:45:34;;;;;;;56.10;22.20;;;;;;;-2.84;54.49;101532.34;4437795;32;20080;-74
2022/03/13 06:48:01;;;;;;;44.42;19.70;;;;;;;-2.42;53.01;101535.69;4424654;32;20097;-74
2022/03/13 06:50:28;;;;;;;41.25;20.92;;;;;;;-2.23;52.19;101529.91;4425123;32;20611;-74
2022/03/13 06:52:56;;;;;;;57.47;20.55;;;;;;;-2.20;52.39;101537.84;4439574;32;20566;-74
2022/03/13 06:55:24;;;;;;;43.80;18.73;;;;;;;-2.21;53.08;101539.53;4439410;32;20111;-74
2022/03/13 06:57:52;;;;;;;43.83;19.73;;;;;;;-2.11;52.95;101546.13;4439646;32;20080;-74
2022/03/13 07:00:19;;;;;;;42.00;18.92;;;;;;;-1.92;53.76;101541.19;4439791;32;20546;-74
2022/03/13 07:02:49;;;;;;;43.20;19.15;;;;;;;-1.74;53.00;101543.94;4439627;32;20183;-74
2022/03/13 07:05:19;;;;;;;48.03;20.30;;;;;;;-1.71;52.78;101541.53;4439797;32;20086;-74
2022/03/13 07:07:47;;;;;;;37.35;17.75;;;;;;;-1.64;53.39;101535.00;4439600;32;20492;-74
2022/03/13 07:10:15;;;;;;;36.67;17.42;;;;;;;-1.58;51.86;101534.47;4425113;32;20516;-74
2022/03/13 07:12:43;;;;;;;35.13;17.42;;;;;;;-1.33;51.25;101532.41;4439624;32;20092;-74
2022/03/13 07:15:12;;;;;;;33.80;16.60;;;;;;;-1.03;49.01;101529.69;4439362;32;20081;-74
2022/03/13 07:17:46;;;;;;;46.08;19.12;;;;;;;-0.72;47.11;101534.78;4439683;32;20572;-74
2022/03/13 07:20:15;;;;;;;49.83;18.95;;;;;;;-0.73;47.83;101535.59;4439515;32;20520;-74
2022/03/13 07:22:44;;;;;;;42.62;18.25;;;;;;;-0.59;48.55;101532.03;4439755;32;20464;-74
2022/03/13 07:25:13;;;;;;;48.80;19.20;;;;;;;-0.65;46.73;101536.00;4425147;32;20154;-74
2022/03/13 07:27:40;;;;;;;45.35;18.80;;;;;;;-0.57;47.33;101532.97;4439431;32;20453;-74
2022/03/13 07:30:14;;;;;;;39.97;19.37;;;;;;;-0.27;48.85;101537.94;4439542;32;20093;-74
2022/03/13 07:32:43;;;;;;;43.97;19.77;;;;;;;-0.05;47.63;101545.97;4439535;32;20533;-74
2022/03/13 07:35:12;;;;;;;45.00;19.67;;;;;;;0.12;47.89;101543.34;4439297;32;20519;-74
2022/03/13 07:37:43;;;;;;;33.38;17.87;;;;;;;0.50;46.91;101542.59;4439358;32;20508;-74
2022/03/13 07:40:11;;;;;;;43.03;19.65;;;;;;;0.57;47.38;101539.47;4439305;32;20155;-74
2022/03/13 07:42:38;;;;;;;39.97;18.00;;;;;;;0.69;47.53;101541.72;4439315;32;20197;-74
2022/03/13 07:45:09;;;;;;;39.60;17.30;;;;;;;0.86;47.34;101545.13;4439471;32;20103;-74
2022/03/13 07:47:37;;;;;;;44.20;18.10;;;;;;;1.07;45.42;101538.31;4439471;32;20104;-75
2022/03/13 07:50:05;;;;;;;35.00;17.30;;;;;;;1.19;45.46;101550.94;4439530;32;20160;-74
2022/03/13 07:52:32;;;;;;;35.13;17.02;;;;;;;1.34;45.53;101543.84;4439386;32;20096;-74
2022/03/13 07:55:00;;;;;;;38.13;15.77;;;;;;;1.54;45.41;101546.41;4439308;32;20085;-74
2022/03/13 07:57:28;;;;;;;26.25;14.63;;;;;;;1.69;43.92;101544.44;4439054;32;20101;-74
2022/03/13 07:59:56;;;;;;;27.23;14.10;;;;;;;1.83;44.11;101548.53;4439184;32;20101;-74
2022/03/13 08:02:24;;;;;;;26.77;14.60;;;;;;;2.00;43.23;101546.63;4439206;32;20108;-74
2022/03/13 08:04:52;;;;;;;27.13;13.32;;;;;;;2.25;42.67;101545.03;4439144;32;20073;-75
2022/03/13 08:07:19;;;;;;;24.05;12.65;;;;;;;2.37;41.18;101549.03;4439088;32;20148;-75
2022/03/13 08:09:47;;;;;;;29.05;13.57;;;;;;;2.53;39.43;101553.13;4439037;32;20144;-75
2022/03/13 08:12:14;;;;;;;22.15;11.73;;;;;;;2.69;39.56;101549.41;4439185;32;20161;-75
2022/03/13 08:14:41;;;;;;;20.83;10.80;;;;;;;2.85;38.17;101548.28;4424720;32;20551;-75
2022/03/13 08:17:08;;;;;;;27.77;12.43;;;;;;;3.02;36.78;101544.59;4438902;32;20100;-75
2022/03/13 08:19:36;;;;;;;23.98;11.07;;;;;;;3.11;37.22;101547.53;4438784;32;20612;-75
2022/03/13 08:22:04;;;;;;;21.83;10.88;;;;;;;3.25;36.02;101544.53;4439415;32;20440;-75
2022/03/13 08:24:31;;;;;;;21.35;9.88;;;;;;;3.36;34.29;101543.22;4439145;32;20389;-75
2022/03/13 08:26:58;;;;;;;47.65;10.35;;;;;;;3.45;34.32;101545.25;4439133;32;20143;-75
2022/03/13 08:29:30;;;;;;;18.90;9.20;;;;;;;3.59;33.75;101546.63;4439161;32;20117;-75
2022/03/13 08:31:58;;;;;;;20.17;9.60;;;;;;;3.82;32.83;101543.13;4439010;32;20081;-75
2022/03/13 08:34:29;;;;;;;32.50;9.85;;;;;;;4.02;31.18;101543.75;4424712;32;20493;-75
2022/03/13 08:37:03;;;;;;;23.60;10.10;;;;;;;4.11;31.56;101544.94;4438993;32;20146;-75
2022/03/13 08:39:31;;;;;;;27.75;11.73;;;;;;;4.24;31.83;101545.37;4438868;32;20177;-75
2022/03/13 08:41:58;;;;;;;24.92;11.27;;;;;;;4.53;32.01;101542.81;4439126;32;20117;-75
2022/03/13 08:44:25;;;;;;;27.80;11.85;;;;;;;4.74;32.11;101533.03;4439128;32;20433;-75
2022/03/13 08:46:52;;;;;;;26.77;10.57;;;;;;;4.92;30.75;101532.69;4438956;32;20444;-75
2022/03/13 08:49:20;;;;;;;23.60;10.73;;;;;;;5.02;29.74;101532.13;4438957;32;20529;-75
2022/03/13 08:51:47;;;;;;;24.37;9.80;;;;;;;5.12;29.20;101529.75;4439138;32;20485;-75
2022/03/13 08:54:16;;;;;;;20.73;10.52;;;;;;;5.15;27.88;101529.84;4438726;32;20158;-75
2022/03/13 08:56:43;;;;;;;29.55;11.05;;;;;;;5.09;27.86;101527.03;4438967;32;20158;-75
2022/03/13 08:59:11;;;;;;;28.65;11.70;;;;;;;5.20;28.69;101523.03;4438823;32;20797;-75
2022/03/13 09:01:38;;;;;;;22.98;10.95;;;;;;;5.26;28.54;101524.09;4424684;32;20105;-75
2022/03/13 09:04:05;;;;;;;28.27;10.98;;;;;;;5.34;29.31;101520.81;4438778;32;20111;-75
2022/03/13 09:06:33;;;;;;;22.95;10.48;;;;;;;5.36;28.37;101519.09;4438907;32;20081;-75
2022/03/13 09:09:00;;;;;;;17.55;9.18;;;;;;;5.64;28.32;101516.38;4438496;32;20166;-75
2022/03/13 09:11:27;;;;;;;32.72;11.90;;;;;;;5.89;27.74;101523.12;4423648;32;20777;-75
2022/03/13 09:13:55;;;;;;;22.73;10.02;;;;;;;5.94;27.56;101521.56;4438841;32;20183;-75
2022/03/13 09:16:22;;;;;;;23.70;10.30;;;;;;;6.12;27.54;101512.41;4438707;32;20128;-75
2022/03/13 09:18:49;;;;;;;21.48;9.63;;;;;;;6.39;27.08;101520.91;4438643;32;20464;-75
2022/03/13 09:21:17;;;;;;;19.55;9.82;;;;;;;6.20;27.00;101511.72;4438639;32;20089;-75
2022/03/13 09:23:44;;;;;;;18.25;8.68;;;;;;;6.39;27.13;101509.53;4424302;32;20119;-75
2022/03/13 09:26:11;;;;;;;19.60;9.65;;;;;;;6.57;26.30;101503.84;4438730;32;20528;-75
2022/03/13 09:28:40;;;;;;;17.27;9.43;;;;;;;6.47;25.48;101506.28;4438656;32;20100;-75
2022/03/13 09:31:08;;;;;;;18.58;9.07;;;;;;;6.56;25.85;101502.09;4438627;32;20097;-75
2022/03/13 09:33:35;;;;;;;17.15;8.88;;;;;;;6.74;26.07;101497.25;4438764;32;20141;-75
2022/03/13 09:36:03;;;;;;;19.08;8.38;;;;;;;6.74;25.44;101497.25;4438602;32;20142;-75
2022/03/13 09:38:30;;;;;;;15.60;8.00;;;;;;;7.19;24.80;101499.94;4438631;32;20124;-75
2022/03/13 09:40:57;;;;;;;18.10;8.32;;;;;;;7.49;24.36;101504.00;4424157;32;20158;-75
2022/03/13 09:43:26;;;;;;;18.20;8.98;;;;;;;7.38;24.23;101497.66;4438433;32;20547;-75
2022/03/13 09:45:53;;;;;;;14.13;8.32;;;;;;;7.76;24.30;101510.59;4438587;32;20097;-75
2022/03/13 09:48:21;;;;;;;16.65;8.43;;;;;;;7.47;23.52;101503.09;4424077;32;20499;-75
2022/03/13 09:50:49;;;;;;;11.70;6.65;;;;;;;7.46;23.97;101493.47;4438468;32;20111;-75
2022/03/13 09:53:16;;;;;;;17.62;7.22;;;;;;;7.60;23.33;101499.84;4438422;32;20475;-75
2022/03/13 09:55:43;;;;;;;16.73;6.78;;;;;;;7.91;23.36;101489.84;4438557;32;20180;-75
2022/03/13 09:58:11;;;;;;;19.33;7.22;;;;;;;7.99;22.85;101477.78;4438345;32;20093;-75
2022/03/13 10:00:39;;;;;;;13.00;7.53;;;;;;;7.83;22.66;101473.13;4424068;32;20165;-75
2022/03/13 10:03:08;;;;;;;12.35;6.12;;;;;;;7.61;22.63;101472.75;4424177;32;20089;-75
2022/03/13 10:05:44;;;;;;;11.63;6.05;;;;;;;7.97;22.79;101468.09;4438288;32;20094;-75
2022/03/13 10:08:12;;;;;;;14.95;6.68;;;;;;;8.16;21.91;101472.75;4438209;32;20176;-75
2022/03/13 10:10:45;;;;;;;9.98;6.30;;;;;;;8.48;21.48;101472.38;4438163;32;20182;-75
2022/03/13 10:13:15;;;;;;;13.40;6.82;;;;;;;8.45;21.82;101468.00;4438280;32;20081;-75
2022/03/13 10:15:46;;;;;;;9.93;5.68;;;;;;;8.43;21.08;101463.56;4438007;32;20445;-75
2022/03/13 10:18:19;;;;;;;16.80;6.40;;;;;;;8.35;21.88;101461.69;4424094;32;20552;-75
2022/03/13 10:20:48;;;;;;;12.35;7.32;;;;;;;8.31;21.50;101457.25;4438139;32;20381;-75
2022/03/13 10:23:19;;;;;;;14.18;6.43;;;;;;;8.79;20.93;101463.19;4439991;32;20125;-75
2022/03/13 10:25:48;;;;;;;17.73;8.23;;;;;;;8.45;20.70;101462.75;4440033;32;20097;-75
2022/03/13 10:28:28;;;;;;;14.32;6.95;;;;;;;8.29;21.40;101455.47;4439944;32;20489;-75
2022/03/13 10:30:58;;;;;;;12.70;6.75;;;;;;;8.56;21.20;101470.78;4425566;32;20109;-75
2022/03/13 10:33:46;;;;;;;13.45;7.18;;;;;;;8.93;21.56;101456.34;4439891;32;20119;-75
2022/03/13 10:36:15;;;;;;;11.07;6.90;;;;;;;8.68;21.78;101451.66;4425170;32;20525;-76
2022/03/13 10:38:45;;;;;;;12.80;7.53;;;;;;;8.91;21.88;101450.22;4439847;32;20092;-75
2022/03/13 10:41:13;;;;;;;16.70;7.35;;;;;;;9.05;21.57;101453.87;4439806;32;20109;-75
2022/03/13 10:43:52;;;;;;;24.58;13.77;;;;;;;9.15;21.38;101457.50;4440021;32;20724;-75
2022/03/13 10:46:36;;;;;;;29.73;16.77;;;;;;;9.77;21.28;101462.47;4439975;32;20355;-75
2022/03/13 10:49:07;;;;;;;19.77;10.60;;;;;;;10.28;20.42;101450.63;4439755;32;20096;-75
2022/03/13 10:51:38;;;;;;;21.08;9.60;;;;;;;10.33;19.55;101442.75;4440029;32;20105;-75
2022/03/13 10:54:06;;;;;;;22.05;10.95;;;;;;;10.94;19.37;101448.28;4439875;32;20081;-75
2022/03/13 10:56:34;;;;;;;12.93;6.90;;;;;;;11.16;19.38;101441.31;4439484;32;20467;-75
2022/03/13 10:59:19;;;;;;;13.15;7.72;;;;;;;11.09;18.85;101442.19;4439487;32;20101;-75
2022/03/13 11:02:16;;;;;;;11.07;6.20;;;;;;;10.89;19.24;101433.34;4439411;32;20156;-75
2022/03/13 11:04:52;;;;;;;14.60;7.10;;;;;;;11.41;18.52;101433.47;4439662;32;20489;-75
2022/03/13 11:07:22;;;;;;;15.98;6.28;;;;;;;12.91;18.09;101433.28;4439648;32;20538;-74
2022/03/13 11:09:49;;;;;;;10.00;6.60;;;;;;;14.07;16.80;101431.59;4439546;32;20528;-73
2022/03/13 11:12:20;;;;;;;9.77;6.90;;;;;;;14.69;16.93;101424.75;4439607;32;20133;-73
2022/03/13 11:14:54;;;;;;;13.43;7.12;;;;;;;14.82;15.78;101426.37;4439417;32;20085;-73
2022/03/13 11:17:25;;;;;;;10.90;6.70;;;;;;;16.13;16.11;101422.59;4439586;32;20450;-73
2022/03/13 11:19:57;;;;;;;16.75;7.22;;;;;;;17.26;14.34;101419.41;4439406;32;20168;-73